createdAt,value
2022-08-09T00:01:19.346Z,4.60
2022-08-09T00:04:00.609Z,4.00
2022-08-09T00:06:36.377Z,4.00
2022-08-09T00:09:04.017Z,4.00
2022-08-09T00:12:02.854Z,3.70
2022-08-09T00:14:21.983Z,4.10
2022-08-09T00:16:58.233Z,4.00
2022-08-09T00:19:27.681Z,3.50
2022-08-09T00:21:56.930Z,4.00
2022-08-09T00:24:27.822Z,3.80
2022-08-09T00:26:57.515Z,3.60
2022-08-09T00:29:39.505Z,3.90
2022-08-09T00:32:25.744Z,3.60
2022-08-09T00:34:56.381Z,3.70
2022-08-09T00:37:24.145Z,3.20
2022-08-09T00:40:14.088Z,4.00
2022-08-09T00:44:14.339Z,3.20
2022-08-09T00:45:27.936Z,3.80
2022-08-09T00:47:55.688Z,3.70
2022-08-09T00:50:26.492Z,3.70
2022-08-09T00:52:55.024Z,3.80
2022-08-09T00:56:03.179Z,3.50
2022-08-09T00:58:14.715Z,4.10
2022-08-09T01:00:53.801Z,4.00
2022-08-09T01:03:46.557Z,3.90
2022-08-09T01:06:53.422Z,3.30
2022-08-09T01:09:54.059Z,4.40
2022-08-09T01:12:51.676Z,4.70
2022-08-09T01:15:24.866Z,4.60
2022-08-09T01:18:05.591Z,4.80
2022-08-09T01:20:57.890Z,5.60
2022-08-09T01:24:02.651Z,5.50
2022-08-09T01:26:52.906Z,5.60
2022-08-09T01:29:28.387Z,5.30
2022-08-09T01:32:31.698Z,5.50
2022-08-09T01:35:00.286Z,4.50
2022-08-09T01:38:05.840Z,5.10
2022-08-09T01:40:28.579Z,4.90
2022-08-09T01:42:57.155Z,5.10
2022-08-09T01:45:25.240Z,4.90
2022-08-09T01:47:53.519Z,5.30
2022-08-09T01:50:29.996Z,5.20
2022-08-09T01:53:20.139Z,5.10
2022-08-09T01:55:50.234Z,4.60
2022-08-09T01:58:18.026Z,4.80
2022-08-09T02:00:50.507Z,5.00
2022-08-09T02:03:19.523Z,5.20
2022-08-09T02:06:03.106Z,5.20
2022-08-09T02:08:58.419Z,5.30
2022-08-09T02:11:42.903Z,5.00
2022-08-09T02:14:15.907Z,5.20
2022-08-09T02:17:14.974Z,5.20
2022-08-09T02:19:43.910Z,5.50
2022-08-09T02:22:19.104Z,5.50
2022-08-09T02:24:58.216Z,5.40
2022-08-09T02:27:57.952Z,5.10
2022-08-09T02:30:17.863Z,4.50
2022-08-09T02:32:47.612Z,4.50
2022-08-09T02:35:46.381Z,4.90
2022-08-09T02:38:11.399Z,5.00
2022-08-09T02:40:50.101Z,4.60
2022-08-09T02:43:19.483Z,6.20
2022-08-09T02:45:50.103Z,4.90
2022-08-09T02:48:30.461Z,5.30
2022-08-09T02:51:01.681Z,4.70
2022-08-09T02:53:34.303Z,5.60
2022-08-09T02:56:03.627Z,5.00
2022-08-09T02:58:36.351Z,5.00
2022-08-09T03:01:10.791Z,4.90
2022-08-09T03:04:18.466Z,4.90
2022-08-09T03:06:28.176Z,5.50
2022-08-09T03:08:58.093Z,5.10
2022-08-09T03:11:30.194Z,5.30
2022-08-09T03:14:15.921Z,5.80
2022-08-09T03:16:45.058Z,5.60
2022-08-09T03:19:57.775Z,5.20
2022-08-09T03:22:12.210Z,4.80
2022-08-09T03:25:06.541Z,4.70
2022-08-09T03:27:45.370Z,4.90
2022-08-09T03:30:30.045Z,5.30
2022-08-09T03:33:18.715Z,5.50
2022-08-09T03:36:16.051Z,5.40
2022-08-09T03:38:42.858Z,4.90
2022-08-09T03:41:16.349Z,5.90
2022-08-09T03:44:04.069Z,5.40
2022-08-09T03:46:34.089Z,5.00
2022-08-09T03:49:04.323Z,5.70
2022-08-09T03:51:56.577Z,5.00
2022-08-09T03:54:31.820Z,5.10
2022-08-09T03:57:04.348Z,5.40
2022-08-09T03:59:55.013Z,6.10
2022-08-09T04:02:30.269Z,5.60
2022-08-09T04:05:01.334Z,18.80
2022-08-09T04:07:52.537Z,6.40
2022-08-09T04:10:29.208Z,5.80
2022-08-09T04:13:00.673Z,5.10
2022-08-09T04:16:17.911Z,5.40
2022-08-09T04:18:19.256Z,5.40
2022-08-09T04:20:48.118Z,5.40
2022-08-09T04:23:17.296Z,6.90
2022-08-09T04:25:52.242Z,6.30
2022-08-09T04:28:33.830Z,6.80
2022-08-09T04:31:09.499Z,5.70
2022-08-09T04:33:51.777Z,5.80
2022-08-09T04:36:31.572Z,6.60
2022-08-09T04:39:01.403Z,6.30
2022-08-09T04:41:32.364Z,6.70
2022-08-09T04:44:05.767Z,6.80
2022-08-09T04:46:38.065Z,6.00
2022-08-09T04:49:40.070Z,6.30
2022-08-09T04:52:12.058Z,6.40
2022-08-09T04:54:51.746Z,6.00
2022-08-09T04:57:23.832Z,5.50
2022-08-09T04:59:54.243Z,5.00
2022-08-09T05:02:23.919Z,5.70
2022-08-09T05:04:55.527Z,5.30
2022-08-09T05:07:25.085Z,4.60
2022-08-09T05:09:57.757Z,5.30
2022-08-09T05:12:29.887Z,5.50
2022-08-09T05:14:58.770Z,4.70
2022-08-09T05:18:55.541Z,4.90
2022-08-09T05:20:14.108Z,5.50
2022-08-09T05:23:54.697Z,5.80
2022-08-09T05:25:32.366Z,4.60
2022-08-09T05:28:00.589Z,5.30
2022-08-09T05:30:29.907Z,5.40
2022-08-09T05:33:00.487Z,4.40
2022-08-09T05:35:29.810Z,4.90
2022-08-09T05:37:59.699Z,4.80
2022-08-09T05:40:28.741Z,4.80
2022-08-09T05:42:56.904Z,5.10
2022-08-09T05:45:24.865Z,5.20
2022-08-09T05:47:59.238Z,4.80
2022-08-09T05:50:39.898Z,4.70
2022-08-09T05:53:21.618Z,5.30
2022-08-09T05:56:01.489Z,5.00
2022-08-09T05:58:29.421Z,4.70
2022-08-09T06:00:58.230Z,4.90
2022-08-09T06:03:34.946Z,4.50
2022-08-09T06:06:11.563Z,4.40
2022-08-09T06:08:39.254Z,5.70
2022-08-09T06:11:17.429Z,4.40
2022-08-09T06:13:47.392Z,3.70
2022-08-09T06:16:16.207Z,4.70
2022-08-09T06:18:44.101Z,4.40
2022-08-09T06:21:12.271Z,4.40
2022-08-09T06:23:57.302Z,4.50
2022-08-09T06:26:28.941Z,4.40
2022-08-09T06:29:01.104Z,4.20
2022-08-09T06:31:39.996Z,4.70
2022-08-09T06:34:22.811Z,5.00
2022-08-09T06:36:59.560Z,4.50
2022-08-09T06:39:48.524Z,4.00
2022-08-09T06:42:24.935Z,4.00
2022-08-09T06:44:57.310Z,4.00
2022-08-09T06:47:25.477Z,4.60
2022-08-09T06:50:15.003Z,4.60
2022-08-09T06:52:47.180Z,4.30
2022-08-09T06:55:18.945Z,4.00
2022-08-09T06:58:02.956Z,4.50
2022-08-09T07:00:49.067Z,3.60
2022-08-09T07:03:28.591Z,4.60
2022-08-09T07:06:04.179Z,4.20
2022-08-09T07:08:35.286Z,3.80
2022-08-09T07:11:06.551Z,4.50
2022-08-09T07:13:45.036Z,3.80
2022-08-09T07:16:41.614Z,4.10
2022-08-09T07:19:15.523Z,4.30
2022-08-09T07:21:55.778Z,4.30
2022-08-09T07:24:32.155Z,4.30
2022-08-09T07:27:26.711Z,3.90
2022-08-09T07:30:00.004Z,3.80
2022-08-09T07:32:32.256Z,5.50
2022-08-09T07:35:10.598Z,5.80
2022-08-09T07:37:43.825Z,5.30
2022-08-09T07:40:17.173Z,4.30
2022-08-09T07:42:54.226Z,5.20
2022-08-09T07:45:37.765Z,4.80
2022-08-09T07:48:29.497Z,4.70
2022-08-09T07:51:10.074Z,4.00
2022-08-09T07:54:07.099Z,4.90
2022-08-09T07:56:45.074Z,4.90
2022-08-09T07:59:34.854Z,4.60
2022-08-09T08:02:08.986Z,4.10
2022-08-09T08:04:37.793Z,3.50
2022-08-09T08:07:15.394Z,3.70
2022-08-09T08:10:08.985Z,3.90
2022-08-09T08:12:43.827Z,4.00
2022-08-09T08:15:16.949Z,3.40
2022-08-09T08:17:53.743Z,4.20
2022-08-09T08:20:28.597Z,3.90
2022-08-09T08:23:01.668Z,3.90
2022-08-09T08:25:44.097Z,3.60
2022-08-09T08:28:14.286Z,3.40
2022-08-09T08:30:47.523Z,3.80
2022-08-09T08:33:21.788Z,3.80
2022-08-09T08:35:59.012Z,3.50
2022-08-09T08:38:29.533Z,3.70
2022-08-09T08:40:58.322Z,3.40
2022-08-09T08:43:27.690Z,3.80
2022-08-09T08:46:24.837Z,4.30
2022-08-09T08:48:51.391Z,3.90
2022-08-09T08:51:23.050Z,3.20
2022-08-09T08:54:03.515Z,4.10
2022-08-09T08:56:39.802Z,4.30
2022-08-09T08:59:19.416Z,4.10
2022-08-09T09:01:52.983Z,3.80
2022-08-09T09:04:31.949Z,4.50
2022-08-09T09:07:09.925Z,4.10
2022-08-09T09:09:58.080Z,3.90
2022-08-09T09:12:29.188Z,3.70
2022-08-09T09:15:00.871Z,3.60
2022-08-09T09:17:48.613Z,4.10
2022-08-09T09:20:16.468Z,4.00
2022-08-09T09:23:02.105Z,3.70
2022-08-09T09:26:03.840Z,4.10
2022-08-09T09:29:02.545Z,3.30
2022-08-09T09:32:03.880Z,3.80
2022-08-09T09:34:18.023Z,4.30
2022-08-09T09:36:53.069Z,4.10
2022-08-09T09:39:25.714Z,3.50
2022-08-09T09:42:29.894Z,3.50
2022-08-09T09:45:04.499Z,3.90
2022-08-09T09:47:42.176Z,3.10
2022-08-09T09:50:39.844Z,3.50
2022-08-09T09:53:20.759Z,3.40
2022-08-09T09:56:04.509Z,3.10
2022-08-09T09:58:47.665Z,3.60
2022-08-09T10:01:31.401Z,4.00
2022-08-09T10:04:23.028Z,4.00
2022-08-09T10:07:03.670Z,4.10
2022-08-09T10:09:57.368Z,4.80
2022-08-09T10:12:31.515Z,4.00
2022-08-09T10:15:04.098Z,4.60
2022-08-09T10:17:50.830Z,3.60
2022-08-09T10:20:35.844Z,3.20
2022-08-09T10:23:20.856Z,3.50
2022-08-09T10:26:06.159Z,3.30
2022-08-09T10:28:37.752Z,3.40
2022-08-09T10:34:10.830Z,3.20
2022-08-09T10:36:43.600Z,3.00
2022-08-09T10:39:15.748Z,3.40
2022-08-09T10:41:47.663Z,3.10
2022-08-09T10:44:21.739Z,3.10
2022-08-09T10:48:12.865Z,3.50
2022-08-09T10:50:01.338Z,3.10
2022-08-09T10:53:00.077Z,2.70
2022-08-09T10:55:55.044Z,2.60
2022-08-09T10:58:34.514Z,2.80
2022-08-09T11:03:02.692Z,2.60
2022-08-09T11:04:19.902Z,2.60
2022-08-09T11:06:59.683Z,2.90
2022-08-09T11:09:48.006Z,2.10
2022-08-09T11:12:17.777Z,2.20
2022-08-09T11:14:54.785Z,2.20
2022-08-09T11:17:24.381Z,2.30
2022-08-09T11:20:10.044Z,2.20
2022-08-09T11:22:47.355Z,2.90
2022-08-09T11:25:44.834Z,2.50
2022-08-09T11:28:38.670Z,2.50
2022-08-09T11:31:43.154Z,2.30
2022-08-09T11:34:20.256Z,2.30
2022-08-09T11:36:48.285Z,1.90
2022-08-09T11:39:16.848Z,1.90
2022-08-09T11:41:45.219Z,1.80
2022-08-09T11:44:13.535Z,1.50
2022-08-09T11:46:52.825Z,2.00
2022-08-09T11:50:54.922Z,1.80
2022-08-09T11:53:21.125Z,2.00
2022-08-09T11:55:53.361Z,2.00
2022-08-09T11:58:32.801Z,2.90
2022-08-09T12:01:15.437Z,2.40
2022-08-09T12:04:01.235Z,2.70
2022-08-09T12:06:32.660Z,2.30
2022-08-09T12:09:06.519Z,2.50
2022-08-09T12:12:02.230Z,2.30
2022-08-09T12:14:36.722Z,2.40
2022-08-09T12:17:27.584Z,2.30
2022-08-09T12:19:59.449Z,2.00
2022-08-09T12:22:29.664Z,2.10
2022-08-09T12:25:36.842Z,3.30
2022-08-09T12:28:59.850Z,2.50
2022-08-09T12:31:11.154Z,2.40
2022-08-09T12:34:00.957Z,2.20
2022-08-09T12:36:33.515Z,2.20
2022-08-09T12:39:02.279Z,2.00
2022-08-09T12:41:38.210Z,1.90
2022-08-09T12:44:24.516Z,2.10
2022-08-09T12:46:57.125Z,2.40
2022-08-09T12:49:24.923Z,2.60
2022-08-09T12:52:02.739Z,2.50
2022-08-09T12:56:12.036Z,3.00
2022-08-09T12:57:49.246Z,2.30
2022-08-09T13:00:48.933Z,2.40
2022-08-09T13:03:57.393Z,2.40
2022-08-09T13:06:49.304Z,2.20
2022-08-09T13:09:38.122Z,2.50
2022-08-09T13:12:08.706Z,2.60
2022-08-09T13:14:44.121Z,2.60
2022-08-09T13:17:43.957Z,2.60
2022-08-09T13:20:23.632Z,3.00
2022-08-09T13:23:06.125Z,2.50
2022-08-09T13:25:54.811Z,2.40
2022-08-09T13:28:34.105Z,2.60
2022-08-09T13:32:17.962Z,2.70
2022-08-09T13:33:56.680Z,2.60
2022-08-09T13:36:42.415Z,2.40
2022-08-09T13:41:19.499Z,2.50
2022-08-09T13:42:05.202Z,2.40
2022-08-09T13:44:35.004Z,2.50
2022-08-09T13:47:29.048Z,2.80
2022-08-09T13:49:57.835Z,2.40
2022-08-09T13:52:30.839Z,2.60
2022-08-09T13:55:04.508Z,2.80
2022-08-09T13:57:39.593Z,2.90
2022-08-09T14:00:15.419Z,2.30
2022-08-09T14:03:03.189Z,2.60
2022-08-09T14:05:58.143Z,2.80
2022-08-09T14:08:26.822Z,2.40
2022-08-09T14:10:56.625Z,2.60
2022-08-09T14:14:14.990Z,2.80
2022-08-09T14:16:28.125Z,2.50
2022-08-09T14:19:04.557Z,2.70
2022-08-09T14:21:51.238Z,3.00
2022-08-09T14:24:32.161Z,2.40
2022-08-09T14:27:28.890Z,2.50
2022-08-09T14:30:36.910Z,3.00
2022-08-09T14:33:11.312Z,3.00
2022-08-09T14:35:52.598Z,3.20
2022-08-09T14:38:21.174Z,2.50
2022-08-09T14:41:02.027Z,2.80
2022-08-09T14:43:53.584Z,2.60
2022-08-09T14:46:57.369Z,2.90
2022-08-09T14:49:15.209Z,3.40
2022-08-09T14:51:44.512Z,2.30
2022-08-09T14:54:15.745Z,2.50
2022-08-09T14:56:57.839Z,2.90
2022-08-09T14:59:29.137Z,2.30
2022-08-09T15:01:58.554Z,2.70
2022-08-09T15:04:26.243Z,2.70
2022-08-09T15:07:05.353Z,2.20
2022-08-09T15:10:03.446Z,2.90
2022-08-09T15:12:40.005Z,2.80
2022-08-09T15:15:13.392Z,2.80
2022-08-09T15:17:52.594Z,2.80
2022-08-09T15:21:57.536Z,2.80
2022-08-09T15:24:00.653Z,4.00
2022-08-09T15:25:59.754Z,3.10
2022-08-09T15:28:33.070Z,3.80
2022-08-09T15:31:10.078Z,4.00
2022-08-09T15:34:15.394Z,3.10
2022-08-09T15:36:32.931Z,4.00
2022-08-09T15:39:00.856Z,3.60
2022-08-09T15:41:32.579Z,3.70
2022-08-09T15:44:02.021Z,3.80
2022-08-09T15:46:33.190Z,3.80
2022-08-09T15:49:21.039Z,3.20
2022-08-09T15:52:04.337Z,3.30
2022-08-09T15:54:46.100Z,3.40
2022-08-09T15:57:34.067Z,3.40
2022-08-09T16:00:07.487Z,3.20
2022-08-09T16:02:35.689Z,3.60
2022-08-09T16:05:06.799Z,3.90
2022-08-09T16:07:39.006Z,3.70
2022-08-09T16:10:11.103Z,3.60
2022-08-09T16:12:50.211Z,3.30
2022-08-09T16:16:10.077Z,3.70
2022-08-09T16:18:08.692Z,3.50
2022-08-09T16:20:41.554Z,3.70
2022-08-09T16:23:11.272Z,3.20
2022-08-09T16:25:40.668Z,3.80
2022-08-09T16:28:12.285Z,3.80
2022-08-09T16:30:44.767Z,3.30
2022-08-09T16:33:23.332Z,4.00
2022-08-09T16:35:56.064Z,3.50
2022-08-09T16:38:25.722Z,3.40
2022-08-09T16:40:53.855Z,3.60
2022-08-09T16:43:23.190Z,4.00
2022-08-09T16:45:53.710Z,4.10
2022-08-09T16:48:42.505Z,3.80
2022-08-09T16:51:13.912Z,3.90
2022-08-09T16:56:32.139Z,5.40
2022-08-09T16:59:01.291Z,3.90
2022-08-09T17:01:33.552Z,4.70
2022-08-09T17:04:02.136Z,6.00
2022-08-09T17:06:33.310Z,5.10
2022-08-09T17:09:12.079Z,4.30
2022-08-09T17:11:52.345Z,5.10
2022-08-09T17:14:27.377Z,4.50
2022-08-09T17:17:00.125Z,4.60
2022-08-09T17:20:04.969Z,5.10
2022-08-09T17:22:30.948Z,4.80
2022-08-09T17:25:02.837Z,4.40
2022-08-09T17:27:33.509Z,5.50
2022-08-09T17:30:06.828Z,5.70
2022-08-09T17:32:44.312Z,5.50
2022-08-09T17:35:14.527Z,5.60
2022-08-09T17:38:13.178Z,5.00
2022-08-09T17:40:33.509Z,5.40
2022-08-09T17:43:32.819Z,4.80
2022-08-09T17:46:03.119Z,4.80
2022-08-09T17:48:35.106Z,5.10
2022-08-09T17:51:19.474Z,4.00
2022-08-09T17:53:52.944Z,4.00
2022-08-09T17:56:32.447Z,4.60
2022-08-09T17:59:09.642Z,4.10
2022-08-09T18:02:06.487Z,4.80
2022-08-09T18:04:28.939Z,4.30
2022-08-09T18:06:57.307Z,4.30
2022-08-09T18:09:40.430Z,4.30
2022-08-09T18:12:40.861Z,4.60
2022-08-09T18:15:04.676Z,4.70
2022-08-09T18:18:02.929Z,4.30
2022-08-09T18:20:59.657Z,5.70
2022-08-09T18:23:07.832Z,4.60
2022-08-09T18:25:57.722Z,4.70
2022-08-09T18:30:36.240Z,5.10
2022-08-09T18:31:24.944Z,5.10
2022-08-09T18:34:00.203Z,5.40
2022-08-09T18:36:32.417Z,5.00
2022-08-09T18:39:05.002Z,4.90
2022-08-09T18:41:34.545Z,5.50
2022-08-09T18:44:13.122Z,5.50
2022-08-09T18:46:47.436Z,6.00
2022-08-09T18:49:19.397Z,4.90
2022-08-09T18:51:55.318Z,4.40
2022-08-09T18:54:29.957Z,4.80
2022-08-09T18:57:06.085Z,5.00
2022-08-09T18:59:48.700Z,5.10
2022-08-09T19:02:20.205Z,5.60
2022-08-09T19:05:03.275Z,5.20
2022-08-09T19:07:32.783Z,5.30
2022-08-09T19:10:15.447Z,5.40
2022-08-09T19:12:51.327Z,5.60
2022-08-09T19:15:29.196Z,5.30
2022-08-09T19:17:58.573Z,5.30
2022-08-09T19:20:26.810Z,4.80
2022-08-09T19:23:02.555Z,5.30
2022-08-09T19:26:01.150Z,5.10
2022-08-09T19:28:21.166Z,5.80
2022-08-09T19:30:48.752Z,6.10
2022-08-09T19:33:20.396Z,7.60
2022-08-09T19:35:56.820Z,6.10
2022-08-09T19:38:27.628Z,6.00
2022-08-09T19:40:57.725Z,5.90
2022-08-09T19:43:58.161Z,6.10
2022-08-09T19:46:33.991Z,6.50
2022-08-09T19:50:06.715Z,6.40
2022-08-09T19:51:55.302Z,6.60
2022-08-09T19:54:27.232Z,6.80
2022-08-09T19:56:55.667Z,7.80
2022-08-09T19:59:57.677Z,6.60
2022-08-09T20:02:36.194Z,6.30
2022-08-09T20:05:09.808Z,6.90
2022-08-09T20:07:59.738Z,6.50
2022-08-09T20:10:34.329Z,6.30
2022-08-09T20:13:06.286Z,6.40
2022-08-09T20:16:37.769Z,7.80
2022-08-09T20:18:27.885Z,6.20
2022-08-09T20:20:57.167Z,6.30
2022-08-09T20:23:39.839Z,6.70
2022-08-09T20:26:10.200Z,7.40
2022-08-09T20:28:48.746Z,5.80
2022-08-09T20:31:17.967Z,7.50
2022-08-09T20:33:46.694Z,8.40
2022-08-09T20:36:20.414Z,8.50
2022-08-09T20:41:37.663Z,7.30
2022-08-09T20:44:10.375Z,7.20
2022-08-09T20:46:42.908Z,6.90
2022-08-09T20:49:13.730Z,7.30
2022-08-09T20:51:42.197Z,7.80
2022-08-09T20:54:16.868Z,8.20
2022-08-09T20:56:47.113Z,7.30
2022-08-09T20:59:50.023Z,7.00
2022-08-09T21:02:05.530Z,7.80
2022-08-09T21:05:52.347Z,7.60
2022-08-09T21:07:20.925Z,8.00
2022-08-09T21:09:58.351Z,7.90
2022-08-09T21:12:56.397Z,7.70
2022-08-09T21:15:17.431Z,7.00
2022-08-09T21:18:20.878Z,7.60
2022-08-09T21:20:39.062Z,6.90
2022-08-09T21:23:09.165Z,7.90
2022-08-09T21:25:59.248Z,7.30
2022-08-09T21:28:34.787Z,7.60
2022-08-09T21:31:16.461Z,8.10
2022-08-09T21:33:52.563Z,7.50
2022-08-09T21:36:28.027Z,8.70
2022-08-09T21:38:59.215Z,7.90
2022-08-09T21:42:05.034Z,8.40
2022-08-09T21:44:34.507Z,8.70
2022-08-09T21:47:08.861Z,7.60
2022-08-09T21:49:40.006Z,7.90
2022-08-09T21:52:16.362Z,8.50
2022-08-09T21:54:57.128Z,7.80
2022-08-09T21:57:39.585Z,8.30
2022-08-09T22:00:33.580Z,7.90
2022-08-09T22:03:05.965Z,8.30
2022-08-09T22:05:37.450Z,8.50
2022-08-09T22:08:14.641Z,8.80
2022-08-09T22:11:00.858Z,7.70
2022-08-09T22:13:34.927Z,7.60
2022-08-09T22:16:08.327Z,8.30
2022-08-09T22:18:54.327Z,8.80
2022-08-09T22:21:27.234Z,8.90
2022-08-09T22:24:17.140Z,8.10
2022-08-09T22:26:51.208Z,8.90
2022-08-09T22:29:24.051Z,8.70
2022-08-09T22:31:57.967Z,8.90
2022-08-09T22:34:26.920Z,9.60
2022-08-09T22:36:56.583Z,9.10
2022-08-09T22:39:56.166Z,9.60
2022-08-09T22:42:21.364Z,8.90
2022-08-09T22:48:04.621Z,9.40
2022-08-09T22:48:18.327Z,9.00
2022-08-09T22:50:30.602Z,10.30
2022-08-09T22:52:59.344Z,8.80
2022-08-09T22:56:07.157Z,9.10
2022-08-09T22:58:20.235Z,8.90
2022-08-09T23:01:05.499Z,10.70
2022-08-09T23:04:04.816Z,10.30
2022-08-09T23:06:34.869Z,10.30
2022-08-09T23:09:07.462Z,10.10
2022-08-09T23:11:35.437Z,9.90
2022-08-09T23:14:04.066Z,9.10
2022-08-09T23:16:37.817Z,11.20
2022-08-09T23:19:05.474Z,11.00
2022-08-09T23:21:33.747Z,9.90
2022-08-09T23:24:06.973Z,9.10
2022-08-09T23:26:36.275Z,10.30
2022-08-09T23:29:05.962Z,9.60
2022-08-09T23:31:34.038Z,9.90
2022-08-09T23:34:03.668Z,10.40
2022-08-09T23:36:33.743Z,9.70
2022-08-09T23:39:02.561Z,10.10
2022-08-09T23:41:30.187Z,11.20
2022-08-09T23:44:02.131Z,10.30
2022-08-09T23:46:30.616Z,10.40
2022-08-09T23:48:59.461Z,10.80
2022-08-09T23:51:27.694Z,10.00
2022-08-09T23:54:02.927Z,9.90
2022-08-09T23:56:52.540Z,12.30
2022-08-09T23:59:21.173Z,12.10
